sensor_id;sensor_type;location;lat;lon;timestamp;P1;durP1;ratioP1;P2;durP2;ratioP2
26822;SDS011;14852;51.910;8.878;2023-07-29T00:01:51;1.50;;;1.40;;
26822;SDS011;14852;51.910;8.878;2023-07-29T00:04:18;1.50;;;1.40;;
26822;SDS011;14852;51.910;8.878;2023-07-29T00:06:45;2.97;;;1.90;;
26822;SDS011;14852;51.910;8.878;2023-07-29T00:09:11;1.50;;;1.38;;
26822;SDS011;14852;51.910;8.878;2023-07-29T00:11:37;2.53;;;1.67;;
26822;SDS011;14852;51.910;8.878;2023-07-29T00:14:03;2.22;;;1.85;;
26822;SDS011;14852;51.910;8.878;2023-07-29T00:16:29;1.70;;;1.60;;
26822;SDS011;14852;51.910;8.878;2023-07-29T00:18:55;1.98;;;1.75;;
26822;SDS011;14852;51.910;8.878;2023-07-29T00:21:20;3.85;;;1.95;;
26822;SDS011;14852;51.910;8.878;2023-07-29T00:23:46;1.92;;;1.73;;
26822;SDS011;14852;51.910;8.878;2023-07-29T00:26:12;2.45;;;1.60;;
26822;SDS011;14852;51.910;8.878;2023-07-29T00:28:38;1.88;;;1.60;;
26822;SDS011;14852;51.910;8.878;2023-07-29T00:31:04;2.03;;;1.45;;
26822;SDS011;14852;51.910;8.878;2023-07-29T00:33:29;2.55;;;1.75;;
26822;SDS011;14852;51.910;8.878;2023-07-29T00:35:55;1.55;;;1.45;;
26822;SDS011;14852;51.910;8.878;2023-07-29T00:38:21;1.77;;;1.60;;
26822;SDS011;14852;51.910;8.878;2023-07-29T00:40:47;2.17;;;1.38;;
26822;SDS011;14852;51.910;8.878;2023-07-29T00:43:14;1.60;;;1.50;;
26822;SDS011;14852;51.910;8.878;2023-07-29T00:45:40;2.13;;;1.55;;
26822;SDS011;14852;51.910;8.878;2023-07-29T00:48:08;1.88;;;1.40;;
26822;SDS011;14852;51.910;8.878;2023-07-29T00:50:34;2.15;;;1.70;;
26822;SDS011;14852;51.910;8.878;2023-07-29T00:53:00;3.30;;;1.98;;
26822;SDS011;14852;51.910;8.878;2023-07-29T00:55:26;1.95;;;1.60;;
26822;SDS011;14852;51.910;8.878;2023-07-29T00:57:53;1.58;;;1.48;;
26822;SDS011;14852;51.910;8.878;2023-07-29T01:00:20;1.50;;;1.40;;
26822;SDS011;14852;51.910;8.878;2023-07-29T01:02:46;1.55;;;1.45;;
26822;SDS011;14852;51.910;8.878;2023-07-29T01:05:13;1.63;;;1.45;;
26822;SDS011;14852;51.910;8.878;2023-07-29T01:10:32;1.63;;;1.40;;
26822;SDS011;14852;51.910;8.878;2023-07-29T01:13:31;1.42;;;1.33;;
26822;SDS011;14852;51.910;8.878;2023-07-29T01:16:30;1.65;;;1.52;;
26822;SDS011;14852;51.910;8.878;2023-07-29T01:19:37;1.80;;;1.70;;
26822;SDS011;14852;51.910;8.878;2023-07-29T01:22:31;2.30;;;1.35;;
26822;SDS011;14852;51.910;8.878;2023-07-29T01:24:59;2.97;;;1.75;;
26822;SDS011;14852;51.910;8.878;2023-07-29T01:27:25;2.20;;;1.50;;
26822;SDS011;14852;51.910;8.878;2023-07-29T01:29:52;1.50;;;1.40;;
26822;SDS011;14852;51.910;8.878;2023-07-29T01:32:23;1.45;;;1.30;;
26822;SDS011;14852;51.910;8.878;2023-07-29T01:35:28;1.83;;;1.63;;
26822;SDS011;14852;51.910;8.878;2023-07-29T01:38:05;1.77;;;1.50;;
26822;SDS011;14852;51.910;8.878;2023-07-29T01:40:39;1.52;;;1.30;;
26822;SDS011;14852;51.910;8.878;2023-07-29T01:43:06;5.20;;;2.00;;
26822;SDS011;14852;51.910;8.878;2023-07-29T01:45:34;1.45;;;1.35;;
26822;SDS011;14852;51.910;8.878;2023-07-29T01:48:04;2.05;;;1.77;;
26822;SDS011;14852;51.910;8.878;2023-07-29T01:50:31;1.65;;;1.50;;
26822;SDS011;14852;51.910;8.878;2023-07-29T01:53:00;1.98;;;1.75;;
26822;SDS011;14852;51.910;8.878;2023-07-29T01:55:25;1.48;;;1.38;;
26822;SDS011;14852;51.910;8.878;2023-07-29T01:57:52;1.88;;;1.58;;
26822;SDS011;14852;51.910;8.878;2023-07-29T02:00:19;1.67;;;1.50;;
26822;SDS011;14852;51.910;8.878;2023-07-29T02:02:46;1.80;;;1.40;;
26822;SDS011;14852;51.910;8.878;2023-07-29T02:05:12;2.13;;;1.90;;
26822;SDS011;14852;51.910;8.878;2023-07-29T02:07:38;1.83;;;1.58;;
26822;SDS011;14852;51.910;8.878;2023-07-29T02:10:04;1.60;;;1.50;;
26822;SDS011;14852;51.910;8.878;2023-07-29T02:12:30;3.08;;;1.60;;
26822;SDS011;14852;51.910;8.878;2023-07-29T02:14:55;2.22;;;1.48;;
26822;SDS011;14852;51.910;8.878;2023-07-29T02:17:21;1.88;;;1.58;;
26822;SDS011;14852;51.910;8.878;2023-07-29T02:19:47;2.33;;;1.50;;
26822;SDS011;14852;51.910;8.878;2023-07-29T02:22:14;1.77;;;1.63;;
26822;SDS011;14852;51.910;8.878;2023-07-29T02:24:42;1.70;;;1.48;;
26822;SDS011;14852;51.910;8.878;2023-07-29T02:27:09;1.95;;;1.30;;
26822;SDS011;14852;51.910;8.878;2023-07-29T02:29:36;3.10;;;1.40;;
26822;SDS011;14852;51.910;8.878;2023-07-29T02:32:02;2.08;;;1.50;;
26822;SDS011;14852;51.910;8.878;2023-07-29T02:34:28;1.58;;;1.35;;
26822;SDS011;14852;51.910;8.878;2023-07-29T02:36:55;1.77;;;1.65;;
26822;SDS011;14852;51.910;8.878;2023-07-29T02:39:21;2.47;;;1.80;;
26822;SDS011;14852;51.910;8.878;2023-07-29T02:41:48;1.70;;;1.60;;
26822;SDS011;14852;51.910;8.878;2023-07-29T02:44:14;1.70;;;1.60;;
26822;SDS011;14852;51.910;8.878;2023-07-29T02:46:40;1.80;;;1.55;;
26822;SDS011;14852;51.910;8.878;2023-07-29T02:49:06;2.10;;;1.73;;
26822;SDS011;14852;51.910;8.878;2023-07-29T02:51:32;1.77;;;1.60;;
26822;SDS011;14852;51.910;8.878;2023-07-29T02:53:58;1.88;;;1.73;;
26822;SDS011;14852;51.910;8.878;2023-07-29T02:56:24;2.97;;;1.65;;
26822;SDS011;14852;51.910;8.878;2023-07-29T02:58:49;2.78;;;1.70;;
26822;SDS011;14852;51.910;8.878;2023-07-29T03:01:18;2.95;;;1.70;;
26822;SDS011;14852;51.910;8.878;2023-07-29T03:03:44;1.85;;;1.45;;
26822;SDS011;14852;51.910;8.878;2023-07-29T03:06:11;1.83;;;1.63;;
26822;SDS011;14852;51.910;8.878;2023-07-29T03:08:40;1.67;;;1.58;;
26822;SDS011;14852;51.910;8.878;2023-07-29T03:11:07;3.08;;;1.73;;
26822;SDS011;14852;51.910;8.878;2023-07-29T03:13:36;1.73;;;1.60;;
26822;SDS011;14852;51.910;8.878;2023-07-29T03:16:09;1.95;;;1.40;;
26822;SDS011;14852;51.910;8.878;2023-07-29T03:18:44;1.77;;;1.60;;
26822;SDS011;14852;51.910;8.878;2023-07-29T03:21:10;1.45;;;1.35;;
26822;SDS011;14852;51.910;8.878;2023-07-29T03:23:36;3.25;;;1.80;;
26822;SDS011;14852;51.910;8.878;2023-07-29T03:26:03;2.92;;;1.70;;
26822;SDS011;14852;51.910;8.878;2023-07-29T03:28:35;1.43;;;1.33;;
26822;SDS011;14852;51.910;8.878;2023-07-29T03:31:04;1.60;;;1.50;;
26822;SDS011;14852;51.910;8.878;2023-07-29T03:33:30;1.98;;;1.33;;
26822;SDS011;14852;51.910;8.878;2023-07-29T03:35:56;2.78;;;1.90;;
26822;SDS011;14852;51.910;8.878;2023-07-29T03:38:22;3.60;;;1.92;;
26822;SDS011;14852;51.910;8.878;2023-07-29T03:40:48;2.42;;;1.70;;
26822;SDS011;14852;51.910;8.878;2023-07-29T03:43:13;1.80;;;1.67;;
26822;SDS011;14852;51.910;8.878;2023-07-29T03:45:40;1.70;;;1.52;;
26822;SDS011;14852;51.910;8.878;2023-07-29T03:48:06;2.00;;;1.80;;
26822;SDS011;14852;51.910;8.878;2023-07-29T03:50:33;4.00;;;2.17;;
26822;SDS011;14852;51.910;8.878;2023-07-29T03:53:01;2.60;;;1.45;;
26822;SDS011;14852;51.910;8.878;2023-07-29T03:55:28;2.63;;;1.90;;
26822;SDS011;14852;51.910;8.878;2023-07-29T03:57:57;3.38;;;2.08;;
26822;SDS011;14852;51.910;8.878;2023-07-29T04:00:24;2.20;;;1.50;;
26822;SDS011;14852;51.910;8.878;2023-07-29T04:02:50;3.90;;;1.73;;
26822;SDS011;14852;51.910;8.878;2023-07-29T04:05:16;4.78;;;2.13;;
26822;SDS011;14852;51.910;8.878;2023-07-29T04:07:43;1.90;;;1.67;;
26822;SDS011;14852;51.910;8.878;2023-07-29T04:10:09;5.13;;;2.00;;
26822;SDS011;14852;51.910;8.878;2023-07-29T04:12:35;3.78;;;2.75;;
26822;SDS011;14852;51.910;8.878;2023-07-29T04:15:01;3.22;;;1.98;;
26822;SDS011;14852;51.910;8.878;2023-07-29T04:17:27;3.65;;;1.75;;
26822;SDS011;14852;51.910;8.878;2023-07-29T04:19:53;1.92;;;1.73;;
26822;SDS011;14852;51.910;8.878;2023-07-29T04:22:21;2.22;;;1.80;;
26822;SDS011;14852;51.910;8.878;2023-07-29T04:24:47;2.40;;;1.80;;
26822;SDS011;14852;51.910;8.878;2023-07-29T04:27:13;2.30;;;2.10;;
26822;SDS011;14852;51.910;8.878;2023-07-29T04:29:39;2.30;;;1.85;;
26822;SDS011;14852;51.910;8.878;2023-07-29T04:32:05;5.70;;;2.75;;
26822;SDS011;14852;51.910;8.878;2023-07-29T04:34:31;3.20;;;2.00;;
26822;SDS011;14852;51.910;8.878;2023-07-29T04:36:57;2.92;;;2.45;;
26822;SDS011;14852;51.910;8.878;2023-07-29T04:39:23;2.53;;;2.03;;
26822;SDS011;14852;51.910;8.878;2023-07-29T04:41:49;3.83;;;2.30;;
26822;SDS011;14852;51.910;8.878;2023-07-29T04:44:15;2.80;;;2.20;;
26822;SDS011;14852;51.910;8.878;2023-07-29T04:46:40;2.25;;;1.92;;
26822;SDS011;14852;51.910;8.878;2023-07-29T04:49:06;3.00;;;1.85;;
26822;SDS011;14852;51.910;8.878;2023-07-29T04:51:32;2.20;;;2.00;;
26822;SDS011;14852;51.910;8.878;2023-07-29T04:53:58;2.85;;;2.10;;
26822;SDS011;14852;51.910;8.878;2023-07-29T04:56:24;2.33;;;1.88;;
26822;SDS011;14852;51.910;8.878;2023-07-29T04:58:50;2.03;;;1.50;;
26822;SDS011;14852;51.910;8.878;2023-07-29T05:01:17;2.50;;;2.10;;
26822;SDS011;14852;51.910;8.878;2023-07-29T05:03:43;1.65;;;1.55;;
26822;SDS011;14852;51.910;8.878;2023-07-29T05:06:11;2.90;;;1.70;;
26822;SDS011;14852;51.910;8.878;2023-07-29T05:08:36;1.55;;;1.35;;
26822;SDS011;14852;51.910;8.878;2023-07-29T05:11:02;2.13;;;1.60;;
26822;SDS011;14852;51.910;8.878;2023-07-29T05:13:28;1.73;;;1.63;;
26822;SDS011;14852;51.910;8.878;2023-07-29T05:15:54;2.17;;;1.70;;
26822;SDS011;14852;51.910;8.878;2023-07-29T05:18:21;1.77;;;1.30;;
26822;SDS011;14852;51.910;8.878;2023-07-29T05:20:48;1.85;;;1.52;;
26822;SDS011;14852;51.910;8.878;2023-07-29T05:23:14;2.70;;;1.38;;
26822;SDS011;14852;51.910;8.878;2023-07-29T05:25:40;1.73;;;1.60;;
26822;SDS011;14852;51.910;8.878;2023-07-29T05:28:06;1.58;;;1.48;;
26822;SDS011;14852;51.910;8.878;2023-07-29T05:30:32;1.90;;;1.40;;
26822;SDS011;14852;51.910;8.878;2023-07-29T05:33:05;4.03;;;1.30;;
26822;SDS011;14852;51.910;8.878;2023-07-29T05:35:33;2.60;;;1.63;;
26822;SDS011;14852;51.910;8.878;2023-07-29T05:37:58;1.90;;;1.40;;
26822;SDS011;14852;51.910;8.878;2023-07-29T05:40:25;1.45;;;1.33;;
26822;SDS011;14852;51.910;8.878;2023-07-29T05:42:50;1.63;;;1.40;;
26822;SDS011;14852;51.910;8.878;2023-07-29T05:45:16;2.53;;;1.80;;
26822;SDS011;14852;51.910;8.878;2023-07-29T05:47:42;1.38;;;1.27;;
26822;SDS011;14852;51.910;8.878;2023-07-29T05:50:08;4.22;;;1.45;;
26822;SDS011;14852;51.910;8.878;2023-07-29T05:52:34;2.15;;;1.15;;
26822;SDS011;14852;51.910;8.878;2023-07-29T05:55:00;1.65;;;1.35;;
26822;SDS011;14852;51.910;8.878;2023-07-29T05:57:26;1.38;;;1.27;;
26822;SDS011;14852;51.910;8.878;2023-07-29T05:59:53;0.90;;;0.90;;
26822;SDS011;14852;51.910;8.878;2023-07-29T06:02:19;1.77;;;1.40;;
26822;SDS011;14852;51.910;8.878;2023-07-29T06:04:44;1.17;;;0.98;;
26822;SDS011;14852;51.910;8.878;2023-07-29T06:07:10;1.17;;;1.08;;
26822;SDS011;14852;51.910;8.878;2023-07-29T06:09:36;1.15;;;1.05;;
26822;SDS011;14852;51.910;8.878;2023-07-29T06:12:02;1.50;;;1.40;;
26822;SDS011;14852;51.910;8.878;2023-07-29T06:14:28;1.48;;;1.35;;
26822;SDS011;14852;51.910;8.878;2023-07-29T06:16:54;3.42;;;1.30;;
26822;SDS011;14852;51.910;8.878;2023-07-29T06:19:20;2.00;;;1.40;;
26822;SDS011;14852;51.910;8.878;2023-07-29T06:21:46;1.25;;;1.15;;
26822;SDS011;14852;51.910;8.878;2023-07-29T06:24:13;2.47;;;1.33;;
26822;SDS011;14852;51.910;8.878;2023-07-29T06:26:39;2.00;;;1.35;;
26822;SDS011;14852;51.910;8.878;2023-07-29T06:29:04;1.40;;;1.30;;
26822;SDS011;14852;51.910;8.878;2023-07-29T06:31:30;1.33;;;1.20;;
26822;SDS011;14852;51.910;8.878;2023-07-29T06:33:57;1.85;;;1.63;;
26822;SDS011;14852;51.910;8.878;2023-07-29T06:36:23;1.58;;;1.48;;
26822;SDS011;14852;51.910;8.878;2023-07-29T06:38:49;1.27;;;1.17;;
26822;SDS011;14852;51.910;8.878;2023-07-29T06:41:15;2.85;;;1.40;;
26822;SDS011;14852;51.910;8.878;2023-07-29T06:43:41;1.88;;;1.50;;
26822;SDS011;14852;51.910;8.878;2023-07-29T06:46:07;1.73;;;1.30;;
26822;SDS011;14852;51.910;8.878;2023-07-29T06:48:33;2.72;;;1.90;;
26822;SDS011;14852;51.910;8.878;2023-07-29T06:50:58;1.65;;;1.55;;
26822;SDS011;14852;51.910;8.878;2023-07-29T06:53:26;1.73;;;1.63;;
26822;SDS011;14852;51.910;8.878;2023-07-29T06:55:52;1.83;;;1.63;;
26822;SDS011;14852;51.910;8.878;2023-07-29T06:58:18;2.30;;;2.10;;
26822;SDS011;14852;51.910;8.878;2023-07-29T07:00:44;2.08;;;1.55;;
26822;SDS011;14852;51.910;8.878;2023-07-29T07:03:10;2.00;;;1.67;;
26822;SDS011;14852;51.910;8.878;2023-07-29T07:05:36;1.58;;;1.48;;
26822;SDS011;14852;51.910;8.878;2023-07-29T07:08:01;2.33;;;1.85;;
26822;SDS011;14852;51.910;8.878;2023-07-29T07:10:27;2.58;;;2.20;;
26822;SDS011;14852;51.910;8.878;2023-07-29T07:12:53;2.90;;;1.88;;
26822;SDS011;14852;51.910;8.878;2023-07-29T07:15:19;2.50;;;2.30;;
26822;SDS011;14852;51.910;8.878;2023-07-29T07:17:45;2.53;;;2.20;;
26822;SDS011;14852;51.910;8.878;2023-07-29T07:20:11;3.22;;;2.90;;
26822;SDS011;14852;51.910;8.878;2023-07-29T07:22:37;2.53;;;2.33;;
26822;SDS011;14852;51.910;8.878;2023-07-29T07:25:03;2.85;;;2.53;;
26822;SDS011;14852;51.910;8.878;2023-07-29T07:27:29;2.67;;;2.47;;
26822;SDS011;14852;51.910;8.878;2023-07-29T07:29:55;4.85;;;2.80;;
26822;SDS011;14852;51.910;8.878;2023-07-29T07:32:20;4.07;;;3.28;;
26822;SDS011;14852;51.910;8.878;2023-07-29T07:34:46;4.10;;;3.70;;
26822;SDS011;14852;51.910;8.878;2023-07-29T07:37:12;5.03;;;3.58;;
26822;SDS011;14852;51.910;8.878;2023-07-29T07:39:38;5.28;;;3.47;;
26822;SDS011;14852;51.910;8.878;2023-07-29T07:42:03;5.72;;;5.22;;
26822;SDS011;14852;51.910;8.878;2023-07-29T07:44:30;7.13;;;6.43;;
26822;SDS011;14852;51.910;8.878;2023-07-29T07:46:56;9.48;;;8.55;;
26822;SDS011;14852;51.910;8.878;2023-07-29T07:49:22;10.02;;;9.07;;
26822;SDS011;14852;51.910;8.878;2023-07-29T07:51:47;10.48;;;9.38;;
26822;SDS011;14852;51.910;8.878;2023-07-29T07:54:13;12.95;;;11.65;;
26822;SDS011;14852;51.910;8.878;2023-07-29T07:56:39;13.00;;;11.57;;
26822;SDS011;14852;51.910;8.878;2023-07-29T07:59:05;12.48;;;11.27;;
26822;SDS011;14852;51.910;8.878;2023-07-29T08:01:34;12.73;;;11.52;;
26822;SDS011;14852;51.910;8.878;2023-07-29T08:04:01;11.85;;;10.75;;
26822;SDS011;14852;51.910;8.878;2023-07-29T08:06:28;13.57;;;11.93;;
26822;SDS011;14852;51.910;8.878;2023-07-29T08:08:54;12.75;;;11.55;;
26822;SDS011;14852;51.910;8.878;2023-07-29T08:11:20;19.00;;;11.18;;
26822;SDS011;14852;51.910;8.878;2023-07-29T08:13:46;11.70;;;10.48;;
26822;SDS011;14852;51.910;8.878;2023-07-29T08:16:12;11.60;;;10.40;;
26822;SDS011;14852;51.910;8.878;2023-07-29T08:18:38;14.48;;;11.38;;
26822;SDS011;14852;51.910;8.878;2023-07-29T08:21:04;11.23;;;10.23;;
26822;SDS011;14852;51.910;8.878;2023-07-29T08:23:30;11.07;;;10.07;;
26822;SDS011;14852;51.910;8.878;2023-07-29T08:26:01;10.90;;;9.90;;
26822;SDS011;14852;51.910;8.878;2023-07-29T08:28:34;10.00;;;8.35;;
26822;SDS011;14852;51.910;8.878;2023-07-29T08:31:02;10.10;;;9.15;;
26822;SDS011;14852;51.910;8.878;2023-07-29T08:33:30;20.58;;;9.18;;
26822;SDS011;14852;51.910;8.878;2023-07-29T08:35:56;8.63;;;7.82;;
26822;SDS011;14852;51.910;8.878;2023-07-29T08:38:22;6.85;;;6.25;;
26822;SDS011;14852;51.910;8.878;2023-07-29T08:43:38;6.20;;;5.60;;
26822;SDS011;14852;51.910;8.878;2023-07-29T08:46:13;6.00;;;5.50;;
26822;SDS011;14852;51.910;8.878;2023-07-29T08:48:41;5.60;;;5.10;;
26822;SDS011;14852;51.910;8.878;2023-07-29T08:51:09;5.32;;;4.78;;
26822;SDS011;14852;51.910;8.878;2023-07-29T08:53:37;5.28;;;4.80;;
26822;SDS011;14852;51.910;8.878;2023-07-29T08:56:04;5.53;;;5.03;;
26822;SDS011;14852;51.910;8.878;2023-07-29T08:58:32;5.82;;;5.32;;
26822;SDS011;14852;51.910;8.878;2023-07-29T09:00:58;5.63;;;5.13;;
26822;SDS011;14852;51.910;8.878;2023-07-29T09:03:25;5.50;;;5.10;;
26822;SDS011;14852;51.910;8.878;2023-07-29T09:05:50;5.38;;;4.88;;
26822;SDS011;14852;51.910;8.878;2023-07-29T09:08:17;5.60;;;5.13;;
26822;SDS011;14852;51.910;8.878;2023-07-29T09:10:44;5.40;;;5.00;;
26822;SDS011;14852;51.910;8.878;2023-07-29T09:13:10;7.03;;;5.50;;
26822;SDS011;14852;51.910;8.878;2023-07-29T09:15:36;5.40;;;5.00;;
26822;SDS011;14852;51.910;8.878;2023-07-29T09:18:12;5.85;;;5.35;;
26822;SDS011;14852;51.910;8.878;2023-07-29T09:20:43;5.47;;;4.97;;
26822;SDS011;14852;51.910;8.878;2023-07-29T09:23:11;5.07;;;4.68;;
26822;SDS011;14852;51.910;8.878;2023-07-29T09:25:37;6.07;;;5.57;;
26822;SDS011;14852;51.910;8.878;2023-07-29T09:28:10;5.65;;;5.15;;
26822;SDS011;14852;51.910;8.878;2023-07-29T09:30:38;4.93;;;4.53;;
26822;SDS011;14852;51.910;8.878;2023-07-29T09:33:06;4.70;;;4.00;;
26822;SDS011;14852;51.910;8.878;2023-07-29T09:35:35;4.30;;;4.00;;
26822;SDS011;14852;51.910;8.878;2023-07-29T09:38:03;4.20;;;3.83;;
26822;SDS011;14852;51.910;8.878;2023-07-29T09:40:35;4.40;;;4.03;;
26822;SDS011;14852;51.910;8.878;2023-07-29T09:43:02;3.50;;;3.20;;
26822;SDS011;14852;51.910;8.878;2023-07-29T09:45:29;3.20;;;2.90;;
26822;SDS011;14852;51.910;8.878;2023-07-29T09:47:57;3.15;;;2.85;;
26822;SDS011;14852;51.910;8.878;2023-07-29T09:50:24;3.05;;;2.72;;
26822;SDS011;14852;51.910;8.878;2023-07-29T09:52:52;2.65;;;2.40;;
26822;SDS011;14852;51.910;8.878;2023-07-29T09:55:23;2.67;;;2.45;;
26822;SDS011;14852;51.910;8.878;2023-07-29T09:57:58;2.65;;;2.42;;
26822;SDS011;14852;51.910;8.878;2023-07-29T10:00:27;3.72;;;2.60;;
26822;SDS011;14852;51.910;8.878;2023-07-29T10:02:54;3.72;;;2.15;;
26822;SDS011;14852;51.910;8.878;2023-07-29T10:05:22;2.25;;;1.80;;
26822;SDS011;14852;51.910;8.878;2023-07-29T10:07:48;1.60;;;1.45;;
26822;SDS011;14852;51.910;8.878;2023-07-29T10:10:15;1.92;;;1.73;;
26822;SDS011;14852;51.910;8.878;2023-07-29T10:12:41;2.15;;;1.80;;
26822;SDS011;14852;51.910;8.878;2023-07-29T10:15:07;2.13;;;1.85;;
26822;SDS011;14852;51.910;8.878;2023-07-29T10:17:34;1.73;;;1.50;;
26822;SDS011;14852;51.910;8.878;2023-07-29T10:20:03;1.75;;;1.60;;
26822;SDS011;14852;51.910;8.878;2023-07-29T10:22:40;1.40;;;1.15;;
26822;SDS011;14852;51.910;8.878;2023-07-29T10:25:18;1.45;;;1.33;;
26822;SDS011;14852;51.910;8.878;2023-07-29T10:27:59;1.08;;;1.02;;
26822;SDS011;14852;51.910;8.878;2023-07-29T10:30:31;1.15;;;1.05;;
26822;SDS011;14852;51.910;8.878;2023-07-29T10:32:58;1.38;;;1.10;;
26822;SDS011;14852;51.910;8.878;2023-07-29T10:38:01;1.30;;;1.17;;
26822;SDS011;14852;51.910;8.878;2023-07-29T10:40:43;1.30;;;1.20;;
26822;SDS011;14852;51.910;8.878;2023-07-29T10:43:34;1.25;;;1.13;;
26822;SDS011;14852;51.910;8.878;2023-07-29T10:46:16;1.27;;;0.90;;
26822;SDS011;14852;51.910;8.878;2023-07-29T10:48:54;0.90;;;0.90;;
26822;SDS011;14852;51.910;8.878;2023-07-29T10:54:03;0.85;;;0.82;;
26822;SDS011;14852;51.910;8.878;2023-07-29T10:56:40;1.60;;;1.20;;
26822;SDS011;14852;51.910;8.878;2023-07-29T11:01:37;2.45;;;1.50;;
26822;SDS011;14852;51.910;8.878;2023-07-29T11:18:00;1.45;;;1.35;;
26822;SDS011;14852;51.910;8.878;2023-07-29T11:20:28;1.70;;;1.20;;
26822;SDS011;14852;51.910;8.878;2023-07-29T11:22:56;2.28;;;1.65;;
26822;SDS011;14852;51.910;8.878;2023-07-29T11:25:27;1.80;;;1.50;;
26822;SDS011;14852;51.910;8.878;2023-07-29T11:27:56;2.53;;;1.45;;
26822;SDS011;14852;51.910;8.878;2023-07-29T11:30:23;1.25;;;1.05;;
26822;SDS011;14852;51.910;8.878;2023-07-29T11:32:54;2.00;;;1.20;;
26822;SDS011;14852;51.910;8.878;2023-07-29T11:35:21;1.40;;;1.30;;
26822;SDS011;14852;51.910;8.878;2023-07-29T11:37:48;1.63;;;1.48;;
26822;SDS011;14852;51.910;8.878;2023-07-29T11:42:44;1.58;;;1.30;;
26822;SDS011;14852;51.910;8.878;2023-07-29T11:45:12;1.42;;;1.33;;
26822;SDS011;14852;51.910;8.878;2023-07-29T11:47:39;1.70;;;1.38;;
26822;SDS011;14852;51.910;8.878;2023-07-29T11:50:08;1.55;;;1.45;;
26822;SDS011;14852;51.910;8.878;2023-07-29T11:52:42;2.03;;;1.65;;
26822;SDS011;14852;51.910;8.878;2023-07-29T11:55:11;1.52;;;1.27;;
26822;SDS011;14852;51.910;8.878;2023-07-29T11:57:39;1.60;;;1.30;;
26822;SDS011;14852;51.910;8.878;2023-07-29T12:00:07;1.48;;;1.25;;
26822;SDS011;14852;51.910;8.878;2023-07-29T12:02:42;2.55;;;1.50;;
26822;SDS011;14852;51.910;8.878;2023-07-29T12:05:12;1.40;;;1.30;;
26822;SDS011;14852;51.910;8.878;2023-07-29T12:07:39;1.50;;;1.40;;
26822;SDS011;14852;51.910;8.878;2023-07-29T12:10:08;1.40;;;1.30;;
26822;SDS011;14852;51.910;8.878;2023-07-29T12:12:45;1.50;;;1.33;;
26822;SDS011;14852;51.910;8.878;2023-07-29T12:15:12;1.63;;;1.27;;
26822;SDS011;14852;51.910;8.878;2023-07-29T12:17:41;1.40;;;1.30;;
26822;SDS011;14852;51.910;8.878;2023-07-29T12:20:08;1.48;;;1.38;;
26822;SDS011;14852;51.910;8.878;2023-07-29T12:22:35;1.30;;;1.20;;
26822;SDS011;14852;51.910;8.878;2023-07-29T12:25:01;1.38;;;1.20;;
26822;SDS011;14852;51.910;8.878;2023-07-29T12:27:29;2.05;;;1.58;;
26822;SDS011;14852;51.910;8.878;2023-07-29T12:29:57;2.13;;;1.48;;
26822;SDS011;14852;51.910;8.878;2023-07-29T12:32:28;1.10;;;1.00;;
26822;SDS011;14852;51.910;8.878;2023-07-29T12:34:54;1.80;;;1.35;;
26822;SDS011;14852;51.910;8.878;2023-07-29T12:37:20;1.67;;;1.40;;
26822;SDS011;14852;51.910;8.878;2023-07-29T12:39:57;3.33;;;1.52;;
26822;SDS011;14852;51.910;8.878;2023-07-29T12:42:23;2.30;;;1.60;;
26822;SDS011;14852;51.910;8.878;2023-07-29T12:44:49;2.50;;;1.80;;
26822;SDS011;14852;51.910;8.878;2023-07-29T12:47:15;2.95;;;1.45;;
26822;SDS011;14852;51.910;8.878;2023-07-29T12:49:40;2.38;;;1.67;;
26822;SDS011;14852;51.910;8.878;2023-07-29T12:52:06;2.67;;;1.92;;
26822;SDS011;14852;51.910;8.878;2023-07-29T12:54:32;2.35;;;1.50;;
26822;SDS011;14852;51.910;8.878;2023-07-29T12:56:58;1.77;;;1.50;;
26822;SDS011;14852;51.910;8.878;2023-07-29T12:59:24;1.83;;;1.50;;
26822;SDS011;14852;51.910;8.878;2023-07-29T13:01:49;2.03;;;1.73;;
26822;SDS011;14852;51.910;8.878;2023-07-29T13:04:15;1.73;;;1.60;;
26822;SDS011;14852;51.910;8.878;2023-07-29T13:06:41;2.08;;;1.50;;
26822;SDS011;14852;51.910;8.878;2023-07-29T13:09:07;2.08;;;1.48;;
26822;SDS011;14852;51.910;8.878;2023-07-29T13:11:33;2.70;;;1.70;;
26822;SDS011;14852;51.910;8.878;2023-07-29T13:13:59;2.10;;;1.60;;
26822;SDS011;14852;51.910;8.878;2023-07-29T13:16:26;1.55;;;1.45;;
26822;SDS011;14852;51.910;8.878;2023-07-29T13:18:55;2.00;;;1.60;;
26822;SDS011;14852;51.910;8.878;2023-07-29T13:21:21;2.33;;;1.85;;
26822;SDS011;14852;51.910;8.878;2023-07-29T13:23:48;2.42;;;1.80;;
26822;SDS011;14852;51.910;8.878;2023-07-29T13:26:13;1.98;;;1.83;;
26822;SDS011;14852;51.910;8.878;2023-07-29T13:28:39;2.03;;;1.70;;
26822;SDS011;14852;51.910;8.878;2023-07-29T13:31:05;2.65;;;1.35;;
26822;SDS011;14852;51.910;8.878;2023-07-29T13:33:31;2.17;;;1.98;;
26822;SDS011;14852;51.910;8.878;2023-07-29T13:35:59;2.65;;;1.83;;
26822;SDS011;14852;51.910;8.878;2023-07-29T13:38:28;2.92;;;2.10;;
26822;SDS011;14852;51.910;8.878;2023-07-29T13:40:54;2.38;;;2.17;;
26822;SDS011;14852;51.910;8.878;2023-07-29T13:43:20;3.17;;;2.10;;
26822;SDS011;14852;51.910;8.878;2023-07-29T13:45:46;2.05;;;1.83;;
26822;SDS011;14852;51.910;8.878;2023-07-29T13:48:13;2.25;;;2.05;;
26822;SDS011;14852;51.910;8.878;2023-07-29T13:50:39;2.10;;;1.60;;
26822;SDS011;14852;51.910;8.878;2023-07-29T13:53:06;1.83;;;1.70;;
26822;SDS011;14852;51.910;8.878;2023-07-29T13:55:32;3.45;;;2.65;;
26822;SDS011;14852;51.910;8.878;2023-07-29T13:57:57;4.07;;;3.63;;
26822;SDS011;14852;51.910;8.878;2023-07-29T14:00:23;4.82;;;3.22;;
26822;SDS011;14852;51.910;8.878;2023-07-29T14:02:49;5.55;;;4.25;;
26822;SDS011;14852;51.910;8.878;2023-07-29T14:05:15;4.30;;;2.90;;
26822;SDS011;14852;51.910;8.878;2023-07-29T14:07:43;2.30;;;2.10;;
26822;SDS011;14852;51.910;8.878;2023-07-29T14:10:09;2.35;;;1.90;;
26822;SDS011;14852;51.910;8.878;2023-07-29T14:12:35;3.05;;;2.03;;
26822;SDS011;14852;51.910;8.878;2023-07-29T14:15:01;2.97;;;2.15;;
26822;SDS011;14852;51.910;8.878;2023-07-29T14:17:28;2.28;;;1.88;;
26822;SDS011;14852;51.910;8.878;2023-07-29T14:19:54;1.90;;;1.80;;
26822;SDS011;14852;51.910;8.878;2023-07-29T14:22:20;2.50;;;1.85;;
26822;SDS011;14852;51.910;8.878;2023-07-29T14:24:45;2.45;;;1.98;;
26822;SDS011;14852;51.910;8.878;2023-07-29T14:27:11;3.55;;;2.10;;
26822;SDS011;14852;51.910;8.878;2023-07-29T14:29:37;2.05;;;1.85;;
26822;SDS011;14852;51.910;8.878;2023-07-29T14:32:03;2.80;;;2.30;;
26822;SDS011;14852;51.910;8.878;2023-07-29T14:34:29;4.10;;;2.42;;
26822;SDS011;14852;51.910;8.878;2023-07-29T14:36:55;4.22;;;2.30;;
26822;SDS011;14852;51.910;8.878;2023-07-29T14:39:21;2.05;;;1.83;;
26822;SDS011;14852;51.910;8.878;2023-07-29T14:41:46;4.03;;;2.97;;
26822;SDS011;14852;51.910;8.878;2023-07-29T14:44:12;3.15;;;2.42;;
26822;SDS011;14852;51.910;8.878;2023-07-29T14:46:38;3.40;;;2.28;;
26822;SDS011;14852;51.910;8.878;2023-07-29T14:49:04;2.30;;;2.03;;
26822;SDS011;14852;51.910;8.878;2023-07-29T14:51:30;2.33;;;2.05;;
26822;SDS011;14852;51.910;8.878;2023-07-29T14:53:56;2.42;;;1.90;;
26822;SDS011;14852;51.910;8.878;2023-07-29T14:56:22;2.03;;;1.70;;
26822;SDS011;14852;51.910;8.878;2023-07-29T14:58:47;2.10;;;1.90;;
26822;SDS011;14852;51.910;8.878;2023-07-29T15:01:15;2.20;;;1.92;;
26822;SDS011;14852;51.910;8.878;2023-07-29T15:03:41;3.20;;;2.50;;
26822;SDS011;14852;51.910;8.878;2023-07-29T15:06:07;4.20;;;3.05;;
26822;SDS011;14852;51.910;8.878;2023-07-29T15:08:32;6.18;;;4.25;;
26822;SDS011;14852;51.910;8.878;2023-07-29T15:10:58;6.93;;;4.53;;
26822;SDS011;14852;51.910;8.878;2023-07-29T15:13:24;8.45;;;4.88;;
26822;SDS011;14852;51.910;8.878;2023-07-29T15:15:50;4.75;;;3.20;;
26822;SDS011;14852;51.910;8.878;2023-07-29T15:18:16;4.22;;;2.63;;